Airfield :
LOGIN :

Register | Disclaimer

   EN    FR    IT 

 










Legend :    VFR   Marginal VFR   IFR   Intensive IFR   Very Intensive IFR
Visi :
Ceiling :
>= 8 km
>= 3000ft
5 to 8 km
1000 to 3000 ft
1500m to 5 km
500 to 1000 ft
800 to 1500m
200 to 500 ft
< 800m
< 200 ft
Symbols :   Thunderstorms  Fog  Heavy snow  Heavy precipitations  Wind > 20 kt
SIGMETs :     Misc.  Thunderstorms  Icing  Turbulence  Mountain Waves  Volcanic Ashes






- Airport Elevation : 37 ft
- IATA code : OLB


LIEO - Olbia Costa Smeralda

CURRENT METAR :
  • 181450Z 24023G37KT 9999 FEW030 17/04 Q1008

EXPIRED METARs :
  • 181420Z 26024KT 9999 FEW030 17/03 Q1008
  • 181350Z 26023G34KT 9999 FEW030 18/02 Q1008
  • 181320Z 26024G34KT 9999 FEW030 19/01 Q1009
  • 181250Z 26027G38KT 9999 FEW030 18/01 Q1009
  • 181220Z 26025G35KT 9999 FEW030 19/01 Q1009
  • 181150Z 27023KT 9999 FEW050 19/01 Q1009
  • 181120Z 30016KT 9999 FEW050 19/02 Q1008
  • 181050Z 29018KT 260V330 9999 FEW050 19/03 Q1009
  • 181020Z 30015KT 270V330 9999 FEW050 18/03 Q1009

TAF TAF LIEO
Valid from the 18 at 12:00 until the 19 at 12:00 UTC


181100Z 1812/1912 27018KT 9999 SCT030
TEMPO 1812/1820 27020G35KT
TEMPO 1821/1824 RA



MET'MAP, your aeronautical weather chart ! - Copyright ORBIFLY December 2007 - Disclaimer

ORBIFLY MET'MAP TEAM :

Programming & Development : Alexandra Zaïnal
Original concept : Baudouin d'Aumeries
Technical & hardware support : Manuel Goepfert
Assistance : Marc-Olivier Méhu




SOURCES & CREDITS :

   NOAA